createdAt,value
2022-09-18T00:00:07.353Z,36.51
2022-09-18T00:05:05.844Z,36.23
2022-09-18T00:09:59.638Z,36.10
2022-09-18T00:14:54.107Z,36.13
2022-09-18T00:19:48.480Z,36.13
2022-09-18T00:24:41.863Z,36.14
2022-09-18T00:29:35.676Z,36.13
2022-09-18T00:34:29.568Z,36.12
2022-09-18T00:39:22.857Z,36.09
2022-09-18T00:44:38.211Z,35.83
2022-09-18T00:49:33.156Z,35.99
2022-09-18T00:54:40.276Z,36.09
2022-09-18T00:59:35.169Z,36.05
2022-09-18T01:04:30.421Z,35.87
2022-09-18T01:09:42.964Z,36.07
2022-09-18T01:14:51.191Z,35.84
2022-09-18T01:20:31.576Z,35.77
2022-09-18T01:25:24.346Z,35.79
2022-09-18T01:30:18.338Z,35.77
2022-09-18T01:35:41.044Z,35.92
2022-09-18T01:41:10.648Z,35.77
2022-09-18T01:46:08.690Z,35.67
2022-09-18T01:51:23.188Z,35.64
2022-09-18T01:56:30.110Z,35.42
2022-09-18T02:01:30.347Z,35.10
2022-09-18T02:06:27.184Z,35.14
2022-09-18T02:11:22.357Z,35.37
2022-09-18T02:16:37.988Z,35.14
2022-09-18T02:22:10.717Z,35.27
2022-09-18T02:27:24.823Z,35.47
2022-09-18T02:32:21.136Z,35.39
2022-09-18T02:37:53.488Z,35.35
2022-09-18T02:43:11.006Z,35.50
2022-09-18T02:48:19.455Z,35.23
2022-09-18T02:53:21.280Z,35.49
2022-09-18T02:58:38.457Z,35.17
2022-09-18T03:04:07.536Z,35.28
2022-09-18T03:09:12.786Z,35.31
2022-09-18T03:14:06.581Z,35.23
2022-09-18T03:19:00.701Z,35.32
2022-09-18T03:23:53.460Z,35.42
2022-09-18T03:28:53.661Z,35.17
2022-09-18T03:33:52.116Z,35.21
2022-09-18T03:38:45.730Z,34.91
2022-09-18T03:43:40.472Z,35.17
2022-09-18T03:48:36.190Z,35.04
2022-09-18T03:53:29.010Z,35.04
2022-09-18T03:58:41.523Z,35.22
2022-09-18T04:03:59.382Z,35.15
2022-09-18T04:09:11.573Z,35.21
2022-09-18T04:14:10.110Z,35.03
2022-09-18T04:19:06.380Z,35.35
2022-09-18T04:24:00.475Z,35.37
2022-09-18T04:28:53.417Z,35.16
2022-09-18T04:33:46.760Z,34.87
2022-09-18T04:38:40.271Z,35.21
2022-09-18T04:43:34.387Z,34.91
2022-09-18T04:48:27.955Z,34.87
2022-09-18T04:53:22.516Z,34.83
2022-09-18T04:58:17.491Z,34.72
2022-09-18T05:03:13.940Z,34.88
2022-09-18T05:08:08.148Z,34.79
2022-09-18T05:13:01.407Z,34.77
2022-09-18T05:18:09.085Z,34.72
2022-09-18T05:23:04.403Z,34.49
2022-09-18T05:28:00.341Z,34.72
2022-09-18T05:33:08.547Z,34.71
2022-09-18T05:38:05.067Z,34.46
2022-09-18T05:42:59.190Z,34.52
2022-09-18T05:47:57.721Z,34.83
2022-09-18T05:52:58.937Z,35.15
2022-09-18T05:57:55.767Z,35.31
2022-09-18T06:02:57.019Z,35.55
2022-09-18T06:07:57.645Z,35.50
2022-09-18T06:13:00.732Z,34.15
2022-09-18T06:17:54.777Z,33.73
2022-09-18T06:22:49.210Z,32.42
2022-09-18T06:27:54.080Z,31.74
2022-09-18T06:32:48.256Z,31.93
2022-09-18T06:37:42.548Z,31.20
2022-09-18T06:42:46.226Z,31.14
2022-09-18T06:48:05.206Z,31.79
2022-09-18T06:53:12.396Z,33.51
2022-09-18T06:58:18.231Z,33.42
2022-09-18T07:03:14.871Z,33.56
2022-09-18T07:08:40.564Z,33.16
2022-09-18T07:13:40.823Z,33.61
2022-09-18T07:18:34.556Z,33.92
2022-09-18T07:23:32.436Z,33.96
2022-09-18T07:28:26.613Z,34.00
2022-09-18T07:33:27.925Z,33.86
2022-09-18T07:38:23.432Z,34.11
2022-09-18T07:43:19.200Z,34.20
2022-09-18T07:48:18.484Z,34.23
2022-09-18T07:53:14.996Z,34.23
2022-09-18T07:58:08.311Z,34.46
2022-09-18T08:03:31.324Z,34.52
2022-09-18T08:08:36.826Z,35.09
2022-09-18T08:13:40.856Z,35.21
2022-09-18T08:18:50.609Z,35.66
2022-09-18T08:23:59.200Z,35.32
2022-09-18T08:28:52.915Z,35.62
2022-09-18T08:33:46.173Z,35.64
2022-09-18T08:38:40.602Z,34.90
2022-09-18T08:43:47.749Z,34.76
2022-09-18T08:48:59.012Z,33.96
2022-09-18T08:53:58.007Z,34.09
2022-09-18T08:59:24.257Z,34.30
2022-09-18T09:04:26.048Z,33.69
2022-09-18T09:09:31.209Z,33.35
2022-09-18T09:14:57.028Z,33.08
2022-09-18T09:19:59.571Z,33.20
2022-09-18T09:25:16.406Z,32.52
2022-09-18T09:30:36.482Z,32.64
2022-09-18T09:35:59.593Z,33.32
2022-09-18T09:41:16.437Z,34.21
2022-09-18T09:46:27.090Z,34.31
2022-09-18T09:51:51.861Z,34.74
2022-09-18T09:56:55.860Z,34.37
2022-09-18T10:01:53.535Z,34.82
2022-09-18T10:06:53.114Z,34.67
2022-09-18T10:11:57.357Z,35.87
2022-09-18T10:16:55.010Z,36.75
2022-09-18T10:22:10.170Z,39.56
2022-09-18T10:27:32.283Z,38.13
2022-09-18T10:32:54.928Z,38.62
2022-09-18T10:37:57.477Z,40.51
2022-09-18T10:42:57.098Z,39.57
2022-09-18T10:47:52.181Z,41.50
2022-09-18T10:52:54.041Z,40.05
2022-09-18T10:58:13.387Z,40.68
2022-09-18T11:03:16.264Z,40.63
2022-09-18T11:08:16.884Z,41.17
2022-09-18T11:13:22.931Z,40.07
2022-09-18T11:18:20.956Z,37.74
2022-09-18T11:23:27.668Z,36.94
2022-09-18T11:28:47.540Z,37.98
2022-09-18T11:33:48.767Z,39.77
2022-09-18T11:38:47.673Z,39.84
2022-09-18T11:43:43.687Z,38.46
2022-09-18T11:49:04.715Z,39.76
2022-09-18T11:54:12.988Z,36.51
2022-09-18T11:59:25.683Z,36.81
2022-09-18T12:04:42.606Z,35.54
2022-09-18T12:09:56.435Z,34.68
2022-09-18T12:15:11.202Z,33.90
2022-09-18T12:20:13.784Z,33.13
2022-09-18T12:25:17.520Z,33.33
2022-09-18T12:30:53.560Z,32.65
2022-09-18T12:36:04.298Z,32.62
2022-09-18T12:41:44.834Z,33.84
2022-09-18T12:46:47.720Z,31.96
2022-09-18T12:52:05.725Z,33.77
2022-09-18T12:57:13.219Z,31.71
2022-09-18T13:02:24.353Z,32.96
2022-09-18T13:07:23.855Z,31.85
2022-09-18T13:12:36.570Z,32.15
2022-09-18T13:17:35.467Z,30.17
2022-09-18T13:22:34.924Z,29.93
2022-09-18T13:27:48.110Z,31.26
2022-09-18T13:33:01.943Z,29.08
2022-09-18T13:38:21.572Z,29.68
2022-09-18T13:43:30.379Z,28.64
2022-09-18T13:48:35.910Z,27.99
2022-09-18T13:53:41.271Z,27.34
2022-09-18T13:58:38.283Z,27.25
2022-09-18T14:03:31.687Z,26.71
2022-09-18T14:08:27.548Z,26.24
2022-09-18T14:13:39.828Z,26.07
2022-09-18T14:18:39.320Z,26.80
2022-09-18T14:23:34.563Z,26.56
2022-09-18T14:28:30.389Z,26.48
2022-09-18T14:33:24.632Z,26.75
2022-09-18T14:38:23.206Z,27.62
2022-09-18T14:43:17.935Z,28.06
2022-09-18T14:48:27.287Z,27.97
2022-09-18T14:53:24.865Z,27.95
2022-09-18T14:58:21.617Z,27.37
2022-09-18T15:03:26.630Z,26.01
2022-09-18T15:08:26.633Z,26.72
2022-09-18T15:13:22.705Z,27.25
2022-09-18T15:18:42.996Z,26.96
2022-09-18T15:23:38.595Z,27.62
2022-09-18T15:28:36.079Z,26.65
2022-09-18T15:33:34.649Z,27.34
2022-09-18T15:38:38.510Z,28.29
2022-09-18T15:43:31.680Z,29.56
2022-09-18T15:48:37.842Z,28.32
2022-09-18T15:53:32.512Z,28.79
2022-09-18T15:58:46.544Z,28.36
2022-09-18T16:03:42.528Z,28.72
2022-09-18T16:08:37.632Z,28.64
2022-09-18T16:13:35.730Z,27.58
2022-09-18T16:18:31.956Z,28.76
2022-09-18T16:23:27.879Z,28.23
2022-09-18T16:28:27.770Z,27.38
2022-09-18T16:33:29.794Z,27.00
2022-09-18T16:38:25.589Z,27.14
2022-09-18T16:43:19.861Z,27.50
2022-09-18T16:48:19.780Z,26.31
2022-09-18T16:53:15.654Z,26.43
2022-09-18T16:58:12.278Z,27.03
2022-09-18T17:03:11.575Z,26.96
2022-09-18T17:08:06.700Z,27.22
2022-09-18T17:13:00.769Z,27.39
2022-09-18T17:17:58.734Z,27.64
2022-09-18T17:22:55.362Z,27.61
2022-09-18T17:27:56.356Z,28.47
2022-09-18T17:32:53.768Z,30.43
2022-09-18T17:37:55.985Z,30.51
2022-09-18T17:42:52.872Z,30.67
2022-09-18T17:47:50.560Z,31.43
2022-09-18T17:52:44.726Z,31.09
2022-09-18T17:57:40.208Z,32.00
2022-09-18T18:02:39.287Z,31.29
2022-09-18T18:07:32.142Z,31.83
2022-09-18T18:12:25.850Z,32.15
2022-09-18T18:17:26.480Z,32.09
2022-09-18T18:22:20.148Z,32.48
2022-09-18T18:27:17.971Z,32.42
2022-09-18T18:32:13.560Z,31.59
2022-09-18T18:37:07.299Z,32.27
2022-09-18T18:42:00.955Z,32.93
2022-09-18T18:46:55.613Z,33.32
2022-09-18T18:51:49.399Z,33.16
2022-09-18T18:56:43.231Z,33.90
2022-09-18T19:01:36.550Z,33.49
2022-09-18T19:06:30.827Z,33.32
2022-09-18T19:11:27.616Z,33.84
2022-09-18T19:16:21.816Z,33.30
2022-09-18T19:21:16.256Z,34.06
2022-09-18T19:26:12.185Z,33.23
2022-09-18T19:31:07.683Z,33.13
2022-09-18T19:36:07.693Z,33.02
2022-09-18T19:41:02.715Z,33.35
2022-09-18T19:45:57.051Z,34.23
2022-09-18T19:50:50.799Z,34.61
2022-09-18T19:55:47.619Z,34.73
2022-09-18T20:00:42.603Z,34.82
2022-09-18T20:05:41.644Z,34.67
2022-09-18T20:10:37.396Z,34.58
2022-09-18T20:15:30.937Z,34.81
2022-09-18T20:20:23.539Z,35.10
2022-09-18T20:25:18.290Z,35.12
2022-09-18T20:30:16.043Z,35.31
2022-09-18T20:35:11.158Z,34.99
2022-09-18T20:40:06.881Z,35.26
2022-09-18T20:45:04.489Z,35.13
2022-09-18T20:49:58.542Z,35.39
2022-09-18T20:54:56.870Z,35.30
2022-09-18T20:59:51.447Z,35.15
2022-09-18T21:04:47.299Z,35.09
2022-09-18T21:09:41.520Z,35.16
2022-09-18T21:14:34.815Z,34.98
2022-09-18T21:19:28.369Z,35.03
2022-09-18T21:24:23.220Z,35.32
2022-09-18T21:29:27.087Z,35.01
2022-09-18T21:34:41.063Z,35.13
2022-09-18T21:39:35.790Z,34.90
2022-09-18T21:44:32.658Z,34.99
2022-09-18T21:49:26.735Z,35.02
2022-09-18T21:54:22.335Z,35.04
2022-09-18T21:59:15.926Z,35.19
2022-09-18T22:04:10.513Z,35.25
2022-09-18T22:09:07.710Z,35.32
2022-09-18T22:14:01.779Z,35.39
2022-09-18T22:18:55.270Z,35.29
2022-09-18T22:23:54.512Z,35.28
2022-09-18T22:28:50.317Z,35.19
2022-09-18T22:33:43.399Z,35.20
2022-09-18T22:38:37.464Z,35.43
2022-09-18T22:43:32.533Z,35.23
2022-09-18T22:48:27.153Z,35.05
2022-09-18T22:53:21.170Z,35.03
2022-09-18T22:58:15.343Z,34.93
2022-09-18T23:03:09.304Z,34.71
2022-09-18T23:08:04.078Z,34.78
2022-09-18T23:12:57.787Z,34.89
2022-09-18T23:17:50.996Z,34.69
2022-09-18T23:22:49.100Z,35.02
2022-09-18T23:27:43.374Z,35.44
2022-09-18T23:32:37.936Z,35.63
2022-09-18T23:37:31.423Z,35.74
2022-09-18T23:42:26.922Z,35.64
2022-09-18T23:47:21.130Z,35.75
2022-09-18T23:52:14.566Z,35.77
2022-09-18T23:57:08.785Z,35.87
